sensor_id;sensor_type;location;lat;lon;timestamp;temperature;humidity
29577;DHT22;16509;53.862;10.672;2022-10-17T00:01:39;11.40;99.90
29577;DHT22;16509;53.862;10.672;2022-10-17T00:04:04;12.50;99.90
29577;DHT22;16509;53.862;10.672;2022-10-17T00:06:30;11.50;99.90
29577;DHT22;16509;53.862;10.672;2022-10-17T00:08:55;11.20;99.90
29577;DHT22;16509;53.862;10.672;2022-10-17T00:11:23;11.10;99.90
29577;DHT22;16509;53.862;10.672;2022-10-17T00:13:50;11.40;99.90
29577;DHT22;16509;53.862;10.672;2022-10-17T00:16:26;11.20;99.90
29577;DHT22;16509;53.862;10.672;2022-10-17T00:18:53;11.40;99.90
29577;DHT22;16509;53.862;10.672;2022-10-17T00:21:19;11.30;99.90
29577;DHT22;16509;53.862;10.672;2022-10-17T00:23:46;11.30;99.90
29577;DHT22;16509;53.862;10.672;2022-10-17T00:26:12;11.30;99.90
29577;DHT22;16509;53.862;10.672;2022-10-17T00:28:38;11.20;99.90
29577;DHT22;16509;53.862;10.672;2022-10-17T00:31:05;11.30;99.90
29577;DHT22;16509;53.862;10.672;2022-10-17T00:33:32;11.10;99.90
29577;DHT22;16509;53.862;10.672;2022-10-17T00:36:17;11.10;99.90
29577;DHT22;16509;53.862;10.672;2022-10-17T00:38:44;11.50;99.90
29577;DHT22;16509;53.862;10.672;2022-10-17T00:41:12;11.30;99.90
29577;DHT22;16509;53.862;10.672;2022-10-17T00:46:14;11.40;99.90
29577;DHT22;16509;53.862;10.672;2022-10-17T00:48:40;11.40;99.90
29577;DHT22;16509;53.862;10.672;2022-10-17T00:51:05;11.30;99.90
29577;DHT22;16509;53.862;10.672;2022-10-17T00:53:31;11.50;99.90
29577;DHT22;16509;53.862;10.672;2022-10-17T00:55:58;12.00;99.90
29577;DHT22;16509;53.862;10.672;2022-10-17T00:58:23;11.40;99.90
29577;DHT22;16509;53.862;10.672;2022-10-17T01:00:49;11.50;99.90
29577;DHT22;16509;53.862;10.672;2022-10-17T01:03:15;11.40;99.90
29577;DHT22;16509;53.862;10.672;2022-10-17T01:05:41;11.50;99.90
29577;DHT22;16509;53.862;10.672;2022-10-17T01:08:07;11.30;99.90
29577;DHT22;16509;53.862;10.672;2022-10-17T01:13:45;11.60;99.90
29577;DHT22;16509;53.862;10.672;2022-10-17T01:16:17;11.60;99.90
29577;DHT22;16509;53.862;10.672;2022-10-17T01:18:57;11.50;99.90
29577;DHT22;16509;53.862;10.672;2022-10-17T01:21:35;11.70;99.90
29577;DHT22;16509;53.862;10.672;2022-10-17T01:32:38;11.70;99.90
29577;DHT22;16509;53.862;10.672;2022-10-17T01:35:25;11.70;99.90
29577;DHT22;16509;53.862;10.672;2022-10-17T01:38:06;11.70;99.90
29577;DHT22;16509;53.862;10.672;2022-10-17T01:40:38;11.80;99.90
29577;DHT22;16509;53.862;10.672;2022-10-17T01:45:54;11.80;99.90
29577;DHT22;16509;53.862;10.672;2022-10-17T01:48:26;11.70;99.90
29577;DHT22;16509;53.862;10.672;2022-10-17T01:51:00;11.70;99.90
29577;DHT22;16509;53.862;10.672;2022-10-17T01:53:32;11.80;99.90
29577;DHT22;16509;53.862;10.672;2022-10-17T01:56:00;11.90;99.90
29577;DHT22;16509;53.862;10.672;2022-10-17T01:58:30;11.60;99.90
29577;DHT22;16509;53.862;10.672;2022-10-17T02:01:00;11.60;99.90
29577;DHT22;16509;53.862;10.672;2022-10-17T02:03:27;12.00;99.90
29577;DHT22;16509;53.862;10.672;2022-10-17T02:05:53;11.80;99.90
29577;DHT22;16509;53.862;10.672;2022-10-17T02:08:40;11.60;99.90
29577;DHT22;16509;53.862;10.672;2022-10-17T02:11:15;11.90;99.90
29577;DHT22;16509;53.862;10.672;2022-10-17T02:24:25;11.90;99.90
29577;DHT22;16509;53.862;10.672;2022-10-17T02:27:11;11.90;99.90
29577;DHT22;16509;53.862;10.672;2022-10-17T02:30:18;11.90;99.90
29577;DHT22;16509;53.862;10.672;2022-10-17T02:35:09;12.00;99.90
29577;DHT22;16509;53.862;10.672;2022-10-17T02:37:36;11.90;99.90
29577;DHT22;16509;53.862;10.672;2022-10-17T02:40:02;12.10;99.90
29577;DHT22;16509;53.862;10.672;2022-10-17T02:42:29;12.00;99.90
29577;DHT22;16509;53.862;10.672;2022-10-17T02:44:59;11.50;99.90
29577;DHT22;16509;53.862;10.672;2022-10-17T02:47:34;11.60;99.90
29577;DHT22;16509;53.862;10.672;2022-10-17T02:50:00;11.70;99.90
29577;DHT22;16509;53.862;10.672;2022-10-17T02:52:44;11.90;99.90
29577;DHT22;16509;53.862;10.672;2022-10-17T02:55:50;11.90;99.90
29577;DHT22;16509;53.862;10.672;2022-10-17T02:58:20;12.00;99.90
29577;DHT22;16509;53.862;10.672;2022-10-17T03:00:49;11.70;99.90
29577;DHT22;16509;53.862;10.672;2022-10-17T03:03:23;11.80;99.90
29577;DHT22;16509;53.862;10.672;2022-10-17T03:05:49;11.90;99.90
29577;DHT22;16509;53.862;10.672;2022-10-17T03:08:16;11.80;99.90
29577;DHT22;16509;53.862;10.672;2022-10-17T03:10:42;11.80;99.90
29577;DHT22;16509;53.862;10.672;2022-10-17T03:13:07;11.90;99.90
29577;DHT22;16509;53.862;10.672;2022-10-17T03:15:33;11.80;99.90
29577;DHT22;16509;53.862;10.672;2022-10-17T03:17:58;11.70;99.90
29577;DHT22;16509;53.862;10.672;2022-10-17T03:20:24;11.70;99.90
29577;DHT22;16509;53.862;10.672;2022-10-17T03:22:49;11.70;99.90
29577;DHT22;16509;53.862;10.672;2022-10-17T03:25:15;11.70;99.90
29577;DHT22;16509;53.862;10.672;2022-10-17T03:27:40;11.80;99.90
29577;DHT22;16509;53.862;10.672;2022-10-17T03:30:07;11.80;99.90
29577;DHT22;16509;53.862;10.672;2022-10-17T03:32:33;12.10;99.90
29577;DHT22;16509;53.862;10.672;2022-10-17T03:34:59;12.10;99.90
29577;DHT22;16509;53.862;10.672;2022-10-17T03:37:24;12.00;99.90
29577;DHT22;16509;53.862;10.672;2022-10-17T03:39:50;12.10;99.90
29577;DHT22;16509;53.862;10.672;2022-10-17T03:42:15;12.10;99.90
29577;DHT22;16509;53.862;10.672;2022-10-17T03:44:41;12.00;99.90
29577;DHT22;16509;53.862;10.672;2022-10-17T03:47:06;12.40;99.90
29577;DHT22;16509;53.862;10.672;2022-10-17T03:49:32;12.00;99.90
29577;DHT22;16509;53.862;10.672;2022-10-17T03:51:57;12.10;99.90
29577;DHT22;16509;53.862;10.672;2022-10-17T03:54:23;12.10;99.90
29577;DHT22;16509;53.862;10.672;2022-10-17T03:56:48;13.10;99.90
29577;DHT22;16509;53.862;10.672;2022-10-17T03:59:14;12.70;99.90
29577;DHT22;16509;53.862;10.672;2022-10-17T04:01:41;12.20;99.90
29577;DHT22;16509;53.862;10.672;2022-10-17T04:04:07;12.60;99.90
29577;DHT22;16509;53.862;10.672;2022-10-17T04:06:33;12.60;99.90
29577;DHT22;16509;53.862;10.672;2022-10-17T04:08:59;12.60;99.90
29577;DHT22;16509;53.862;10.672;2022-10-17T04:11:25;12.60;99.90
29577;DHT22;16509;53.862;10.672;2022-10-17T04:13:55;12.30;99.90
29577;DHT22;16509;53.862;10.672;2022-10-17T04:16:22;12.40;99.90
29577;DHT22;16509;53.862;10.672;2022-10-17T04:18:55;12.40;99.90
29577;DHT22;16509;53.862;10.672;2022-10-17T04:21:22;13.00;99.90
29577;DHT22;16509;53.862;10.672;2022-10-17T04:23:52;12.70;99.90
29577;DHT22;16509;53.862;10.672;2022-10-17T04:26:18;12.40;99.90
29577;DHT22;16509;53.862;10.672;2022-10-17T04:28:44;12.40;99.90
29577;DHT22;16509;53.862;10.672;2022-10-17T04:31:12;12.40;99.90
29577;DHT22;16509;53.862;10.672;2022-10-17T04:33:38;12.30;99.90
29577;DHT22;16509;53.862;10.672;2022-10-17T04:36:10;13.00;99.90
29577;DHT22;16509;53.862;10.672;2022-10-17T04:38:36;12.60;99.90
29577;DHT22;16509;53.862;10.672;2022-10-17T04:41:05;12.40;99.90
29577;DHT22;16509;53.862;10.672;2022-10-17T04:43:33;12.70;99.90
29577;DHT22;16509;53.862;10.672;2022-10-17T04:45:59;12.40;99.90
29577;DHT22;16509;53.862;10.672;2022-10-17T04:48:26;12.20;99.90
29577;DHT22;16509;53.862;10.672;2022-10-17T04:50:55;13.20;99.90
29577;DHT22;16509;53.862;10.672;2022-10-17T04:53:22;12.90;99.90
29577;DHT22;16509;53.862;10.672;2022-10-17T04:55:48;12.30;99.90
29577;DHT22;16509;53.862;10.672;2022-10-17T04:58:14;12.50;99.90
29577;DHT22;16509;53.862;10.672;2022-10-17T05:00:40;12.30;99.90
29577;DHT22;16509;53.862;10.672;2022-10-17T05:03:05;12.30;99.90
29577;DHT22;16509;53.862;10.672;2022-10-17T05:05:31;12.30;99.90
29577;DHT22;16509;53.862;10.672;2022-10-17T05:07:57;13.90;99.90
29577;DHT22;16509;53.862;10.672;2022-10-17T05:10:22;13.20;99.90
29577;DHT22;16509;53.862;10.672;2022-10-17T05:12:49;13.40;99.90
29577;DHT22;16509;53.862;10.672;2022-10-17T05:15:14;12.30;99.90
29577;DHT22;16509;53.862;10.672;2022-10-17T05:17:40;12.50;99.90
29577;DHT22;16509;53.862;10.672;2022-10-17T05:20:07;12.50;99.90
29577;DHT22;16509;53.862;10.672;2022-10-17T05:22:32;12.50;99.90
29577;DHT22;16509;53.862;10.672;2022-10-17T05:24:58;12.20;99.90
29577;DHT22;16509;53.862;10.672;2022-10-17T05:27:24;12.50;99.90
29577;DHT22;16509;53.862;10.672;2022-10-17T05:29:49;12.20;99.90
29577;DHT22;16509;53.862;10.672;2022-10-17T05:32:15;12.20;99.90
29577;DHT22;16509;53.862;10.672;2022-10-17T05:34:41;12.20;99.90
29577;DHT22;16509;53.862;10.672;2022-10-17T05:37:07;12.10;99.90
29577;DHT22;16509;53.862;10.672;2022-10-17T05:39:33;12.10;99.90
29577;DHT22;16509;53.862;10.672;2022-10-17T05:41:59;12.30;99.90
29577;DHT22;16509;53.862;10.672;2022-10-17T05:44:28;12.10;99.90
29577;DHT22;16509;53.862;10.672;2022-10-17T05:46:54;11.80;99.90
29577;DHT22;16509;53.862;10.672;2022-10-17T05:49:19;12.00;99.90
29577;DHT22;16509;53.862;10.672;2022-10-17T05:51:45;11.90;99.90
29577;DHT22;16509;53.862;10.672;2022-10-17T05:54:10;12.20;99.90
29577;DHT22;16509;53.862;10.672;2022-10-17T05:56:36;12.00;99.90
29577;DHT22;16509;53.862;10.672;2022-10-17T05:59:01;12.10;99.90
29577;DHT22;16509;53.862;10.672;2022-10-17T06:01:27;11.90;99.90
29577;DHT22;16509;53.862;10.672;2022-10-17T06:03:53;13.60;99.90
29577;DHT22;16509;53.862;10.672;2022-10-17T06:06:18;12.30;99.90
29577;DHT22;16509;53.862;10.672;2022-10-17T06:08:44;12.20;99.90
29577;DHT22;16509;53.862;10.672;2022-10-17T06:11:11;12.00;99.90
29577;DHT22;16509;53.862;10.672;2022-10-17T06:13:37;12.00;99.90
29577;DHT22;16509;53.862;10.672;2022-10-17T06:16:04;12.10;99.90
29577;DHT22;16509;53.862;10.672;2022-10-17T06:18:31;12.20;99.90
29577;DHT22;16509;53.862;10.672;2022-10-17T06:21:10;12.60;99.90
29577;DHT22;16509;53.862;10.672;2022-10-17T06:23:37;12.00;99.90
29577;DHT22;16509;53.862;10.672;2022-10-17T06:26:05;13.10;99.90
29577;DHT22;16509;53.862;10.672;2022-10-17T06:28:31;11.90;99.90
29577;DHT22;16509;53.862;10.672;2022-10-17T06:30:56;12.90;99.90
29577;DHT22;16509;53.862;10.672;2022-10-17T06:33:22;12.20;99.90
29577;DHT22;16509;53.862;10.672;2022-10-17T06:35:54;12.10;99.90
29577;DHT22;16509;53.862;10.672;2022-10-17T06:38:21;12.10;99.90
29577;DHT22;16509;53.862;10.672;2022-10-17T06:40:46;12.40;99.90
29577;DHT22;16509;53.862;10.672;2022-10-17T06:43:12;12.60;99.90
29577;DHT22;16509;53.862;10.672;2022-10-17T06:45:39;12.40;99.90
29577;DHT22;16509;53.862;10.672;2022-10-17T06:48:05;14.30;99.90
29577;DHT22;16509;53.862;10.672;2022-10-17T06:50:30;12.20;99.90
29577;DHT22;16509;53.862;10.672;2022-10-17T06:52:56;12.70;99.90
29577;DHT22;16509;53.862;10.672;2022-10-17T06:55:22;12.50;99.90
29577;DHT22;16509;53.862;10.672;2022-10-17T06:57:47;12.60;99.90
29577;DHT22;16509;53.862;10.672;2022-10-17T07:00:13;12.60;99.90
29577;DHT22;16509;53.862;10.672;2022-10-17T07:02:39;12.60;99.90
29577;DHT22;16509;53.862;10.672;2022-10-17T07:05:06;12.30;99.90
29577;DHT22;16509;53.862;10.672;2022-10-17T07:07:32;12.70;99.90
29577;DHT22;16509;53.862;10.672;2022-10-17T07:09:57;12.70;99.90
29577;DHT22;16509;53.862;10.672;2022-10-17T07:12:23;13.50;99.90
29577;DHT22;16509;53.862;10.672;2022-10-17T07:14:49;12.90;99.90
29577;DHT22;16509;53.862;10.672;2022-10-17T07:17:16;12.60;99.90
29577;DHT22;16509;53.862;10.672;2022-10-17T07:19:42;13.20;99.90
29577;DHT22;16509;53.862;10.672;2022-10-17T07:22:11;13.00;99.90
29577;DHT22;16509;53.862;10.672;2022-10-17T07:24:37;13.10;99.90
29577;DHT22;16509;53.862;10.672;2022-10-17T07:27:02;13.80;99.90
29577;DHT22;16509;53.862;10.672;2022-10-17T07:29:28;13.20;99.90
29577;DHT22;16509;53.862;10.672;2022-10-17T07:31:53;12.90;99.90
29577;DHT22;16509;53.862;10.672;2022-10-17T07:34:19;13.40;99.90
29577;DHT22;16509;53.862;10.672;2022-10-17T07:36:45;15.50;99.90
29577;DHT22;16509;53.862;10.672;2022-10-17T07:39:10;13.90;99.90
29577;DHT22;16509;53.862;10.672;2022-10-17T07:41:36;15.40;99.90
29577;DHT22;16509;53.862;10.672;2022-10-17T07:44:02;13.90;99.90
29577;DHT22;16509;53.862;10.672;2022-10-17T07:46:28;14.10;99.90
29577;DHT22;16509;53.862;10.672;2022-10-17T07:48:53;14.00;99.90
29577;DHT22;16509;53.862;10.672;2022-10-17T07:51:19;14.20;99.90
29577;DHT22;16509;53.862;10.672;2022-10-17T07:53:46;14.90;99.90
29577;DHT22;16509;53.862;10.672;2022-10-17T07:56:11;14.20;99.90
29577;DHT22;16509;53.862;10.672;2022-10-17T07:58:37;14.70;99.90
29577;DHT22;16509;53.862;10.672;2022-10-17T08:01:07;14.60;99.90
29577;DHT22;16509;53.862;10.672;2022-10-17T08:03:37;14.70;99.90
29577;DHT22;16509;53.862;10.672;2022-10-17T08:06:02;14.70;99.90
29577;DHT22;16509;53.862;10.672;2022-10-17T08:08:28;14.80;99.90
29577;DHT22;16509;53.862;10.672;2022-10-17T08:10:55;15.90;99.90
29577;DHT22;16509;53.862;10.672;2022-10-17T08:13:21;15.60;99.90
29577;DHT22;16509;53.862;10.672;2022-10-17T08:15:47;15.80;99.90
29577;DHT22;16509;53.862;10.672;2022-10-17T08:18:14;14.90;99.90
29577;DHT22;16509;53.862;10.672;2022-10-17T08:20:40;14.80;99.90
29577;DHT22;16509;53.862;10.672;2022-10-17T08:33:13;15.50;99.90
29577;DHT22;16509;53.862;10.672;2022-10-17T08:35:38;15.90;99.90
29577;DHT22;16509;53.862;10.672;2022-10-17T08:38:04;16.00;99.90
29577;DHT22;16509;53.862;10.672;2022-10-17T08:40:30;17.40;99.90
29577;DHT22;16509;53.862;10.672;2022-10-17T08:43:25;16.20;99.90
29577;DHT22;16509;53.862;10.672;2022-10-17T08:46:10;16.50;99.90
29577;DHT22;16509;53.862;10.672;2022-10-17T08:48:39;16.30;99.90
29577;DHT22;16509;53.862;10.672;2022-10-17T08:51:23;18.00;99.90
29577;DHT22;16509;53.862;10.672;2022-10-17T08:53:55;17.60;99.90
29577;DHT22;16509;53.862;10.672;2022-10-17T08:56:29;16.20;99.90
29577;DHT22;16509;53.862;10.672;2022-10-17T08:58:58;16.50;99.90
29577;DHT22;16509;53.862;10.672;2022-10-17T09:07:18;16.60;99.90
29577;DHT22;16509;53.862;10.672;2022-10-17T09:09:55;16.70;99.90
29577;DHT22;16509;53.862;10.672;2022-10-17T09:12:31;16.90;99.90
29577;DHT22;16509;53.862;10.672;2022-10-17T09:15:22;17.00;99.90
29577;DHT22;16509;53.862;10.672;2022-10-17T09:18:01;16.90;99.90
29577;DHT22;16509;53.862;10.672;2022-10-17T09:20:37;16.40;99.90
29577;DHT22;16509;53.862;10.672;2022-10-17T09:25:51;17.10;99.90
29577;DHT22;16509;53.862;10.672;2022-10-17T09:28:37;17.30;99.90
29577;DHT22;16509;53.862;10.672;2022-10-17T09:31:06;17.20;99.90
29577;DHT22;16509;53.862;10.672;2022-10-17T09:33:39;17.50;99.90
29577;DHT22;16509;53.862;10.672;2022-10-17T09:36:12;17.50;99.90
29577;DHT22;16509;53.862;10.672;2022-10-17T09:38:41;18.10;99.90
29577;DHT22;16509;53.862;10.672;2022-10-17T09:41:33;18.30;99.90
29577;DHT22;16509;53.862;10.672;2022-10-17T09:44:23;17.40;99.90
29577;DHT22;16509;53.862;10.672;2022-10-17T09:49:30;17.50;99.90
29577;DHT22;16509;53.862;10.672;2022-10-17T09:51:56;17.60;99.90
29577;DHT22;16509;53.862;10.672;2022-10-17T09:54:48;17.50;99.90
29577;DHT22;16509;53.862;10.672;2022-10-17T09:57:16;17.70;99.90
29577;DHT22;16509;53.862;10.672;2022-10-17T09:59:57;17.70;99.90
29577;DHT22;16509;53.862;10.672;2022-10-17T10:02:25;18.10;99.90
29577;DHT22;16509;53.862;10.672;2022-10-17T10:07:18;18.30;99.90
29577;DHT22;16509;53.862;10.672;2022-10-17T10:09:46;18.60;99.90
29577;DHT22;16509;53.862;10.672;2022-10-17T10:12:24;18.50;99.90
29577;DHT22;16509;53.862;10.672;2022-10-17T10:14:50;18.60;99.90
29577;DHT22;16509;53.862;10.672;2022-10-17T10:17:36;18.60;99.90
29577;DHT22;16509;53.862;10.672;2022-10-17T10:20:24;19.20;99.90
29577;DHT22;16509;53.862;10.672;2022-10-17T10:23:13;18.90;99.90
29577;DHT22;16509;53.862;10.672;2022-10-17T10:25:58;18.80;99.90
29577;DHT22;16509;53.862;10.672;2022-10-17T10:28:28;18.80;99.90
29577;DHT22;16509;53.862;10.672;2022-10-17T10:30:55;18.80;99.90
29577;DHT22;16509;53.862;10.672;2022-10-17T10:33:26;19.60;99.90
29577;DHT22;16509;53.862;10.672;2022-10-17T10:36:02;19.10;99.90
29577;DHT22;16509;53.862;10.672;2022-10-17T10:38:29;19.20;99.90
29577;DHT22;16509;53.862;10.672;2022-10-17T10:41:05;20.40;99.90
29577;DHT22;16509;53.862;10.672;2022-10-17T10:43:39;19.00;99.90
29577;DHT22;16509;53.862;10.672;2022-10-17T10:46:20;20.10;99.90
29577;DHT22;16509;53.862;10.672;2022-10-17T10:48:59;19.10;99.90
29577;DHT22;16509;53.862;10.672;2022-10-17T10:51:36;19.00;99.90
29577;DHT22;16509;53.862;10.672;2022-10-17T10:54:22;19.10;99.90
29577;DHT22;16509;53.862;10.672;2022-10-17T10:56:54;19.10;99.90
29577;DHT22;16509;53.862;10.672;2022-10-17T10:59:53;19.20;99.90
29577;DHT22;16509;53.862;10.672;2022-10-17T11:05:24;19.20;99.90
29577;DHT22;16509;53.862;10.672;2022-10-17T11:08:16;19.30;99.90
29577;DHT22;16509;53.862;10.672;2022-10-17T11:11:24;19.30;99.90
29577;DHT22;16509;53.862;10.672;2022-10-17T11:13:59;19.40;99.90
29577;DHT22;16509;53.862;10.672;2022-10-17T11:16:45;20.30;99.90
29577;DHT22;16509;53.862;10.672;2022-10-17T11:22:30;19.70;99.90
29577;DHT22;16509;53.862;10.672;2022-10-17T11:25:04;19.70;99.90
29577;DHT22;16509;53.862;10.672;2022-10-17T11:27:31;20.40;99.90
29577;DHT22;16509;53.862;10.672;2022-10-17T11:29:58;19.70;99.90
29577;DHT22;16509;53.862;10.672;2022-10-17T11:32:35;20.90;99.90
29577;DHT22;16509;53.862;10.672;2022-10-17T11:35:19;19.60;99.90
29577;DHT22;16509;53.862;10.672;2022-10-17T11:38:15;19.50;99.90
29577;DHT22;16509;53.862;10.672;2022-10-17T11:40:45;19.50;99.90
29577;DHT22;16509;53.862;10.672;2022-10-17T11:43:22;19.30;99.90
29577;DHT22;16509;53.862;10.672;2022-10-17T11:45:54;19.30;99.90
29577;DHT22;16509;53.862;10.672;2022-10-17T11:48:37;19.50;99.90
29577;DHT22;16509;53.862;10.672;2022-10-17T11:51:06;19.40;99.90
29577;DHT22;16509;53.862;10.672;2022-10-17T11:56:38;19.30;99.90
29577;DHT22;16509;53.862;10.672;2022-10-17T12:01:45;19.50;99.90
29577;DHT22;16509;53.862;10.672;2022-10-17T12:04:16;19.60;99.90
29577;DHT22;16509;53.862;10.672;2022-10-17T12:07:08;19.60;99.90
29577;DHT22;16509;53.862;10.672;2022-10-17T12:12:39;19.60;99.90
29577;DHT22;16509;53.862;10.672;2022-10-17T12:17:53;19.60;99.90
29577;DHT22;16509;53.862;10.672;2022-10-17T12:23:16;19.70;99.90
29577;DHT22;16509;53.862;10.672;2022-10-17T12:26:03;19.50;99.90
29577;DHT22;16509;53.862;10.672;2022-10-17T12:28:31;19.60;99.90
29577;DHT22;16509;53.862;10.672;2022-10-17T12:31:01;20.10;99.90
29577;DHT22;16509;53.862;10.672;2022-10-17T12:33:37;19.50;99.90
29577;DHT22;16509;53.862;10.672;2022-10-17T12:49:45;19.30;99.90
29577;DHT22;16509;53.862;10.672;2022-10-17T12:55:17;19.10;99.90
29577;DHT22;16509;53.862;10.672;2022-10-17T12:58:00;19.30;99.90
29577;DHT22;16509;53.862;10.672;2022-10-17T13:00:40;19.20;99.90
29577;DHT22;16509;53.862;10.672;2022-10-17T13:03:33;19.00;99.90
29577;DHT22;16509;53.862;10.672;2022-10-17T13:06:02;19.00;99.90
29577;DHT22;16509;53.862;10.672;2022-10-17T13:08:35;19.20;99.90
29577;DHT22;16509;53.862;10.672;2022-10-17T13:11:03;19.20;99.90
29577;DHT22;16509;53.862;10.672;2022-10-17T13:13:47;18.90;99.90
29577;DHT22;16509;53.862;10.672;2022-10-17T13:19:17;18.90;99.90
29577;DHT22;16509;53.862;10.672;2022-10-17T13:22:01;19.50;99.90
29577;DHT22;16509;53.862;10.672;2022-10-17T13:24:33;19.50;99.90
29577;DHT22;16509;53.862;10.672;2022-10-17T13:27:00;18.80;99.90
29577;DHT22;16509;53.862;10.672;2022-10-17T13:29:27;19.40;99.90
29577;DHT22;16509;53.862;10.672;2022-10-17T13:32:04;20.40;99.90
29577;DHT22;16509;53.862;10.672;2022-10-17T13:34:31;18.80;99.90
29577;DHT22;16509;53.862;10.672;2022-10-17T13:37:02;18.80;99.90
29577;DHT22;16509;53.862;10.672;2022-10-17T13:39:33;19.40;99.90
29577;DHT22;16509;53.862;10.672;2022-10-17T13:42:00;18.60;99.90
29577;DHT22;16509;53.862;10.672;2022-10-17T13:44:32;20.40;99.90
29577;DHT22;16509;53.862;10.672;2022-10-17T13:46:58;19.10;99.90
29577;DHT22;16509;53.862;10.672;2022-10-17T13:49:32;18.50;99.90
29577;DHT22;16509;53.862;10.672;2022-10-17T13:51:59;19.30;99.90
29577;DHT22;16509;53.862;10.672;2022-10-17T13:57:01;19.10;99.90
29577;DHT22;16509;53.862;10.672;2022-10-17T13:59:38;18.30;99.90
29577;DHT22;16509;53.862;10.672;2022-10-17T14:02:05;19.20;99.90
29577;DHT22;16509;53.862;10.672;2022-10-17T14:04:37;19.40;99.90
29577;DHT22;16509;53.862;10.672;2022-10-17T14:07:04;18.10;99.90
29577;DHT22;16509;53.862;10.672;2022-10-17T14:09:31;17.40;99.90
29577;DHT22;16509;53.862;10.672;2022-10-17T14:12:09;19.10;99.90
29577;DHT22;16509;53.862;10.672;2022-10-17T14:14:38;17.90;99.90
29577;DHT22;16509;53.862;10.672;2022-10-17T14:17:16;18.00;99.90
29577;DHT22;16509;53.862;10.672;2022-10-17T14:19:53;19.00;99.90
29577;DHT22;16509;53.862;10.672;2022-10-17T14:24:45;18.20;99.90
29577;DHT22;16509;53.862;10.672;2022-10-17T14:27:32;16.90;99.90
29577;DHT22;16509;53.862;10.672;2022-10-17T14:30:04;17.00;99.90
29577;DHT22;16509;53.862;10.672;2022-10-17T14:32:32;17.40;99.90
29577;DHT22;16509;53.862;10.672;2022-10-17T14:35:00;17.20;99.90
29577;DHT22;16509;53.862;10.672;2022-10-17T14:40:05;17.10;99.90
29577;DHT22;16509;53.862;10.672;2022-10-17T14:42:32;17.10;99.90
29577;DHT22;16509;53.862;10.672;2022-10-17T14:45:06;17.00;99.90
29577;DHT22;16509;53.862;10.672;2022-10-17T14:47:33;17.10;99.90
29577;DHT22;16509;53.862;10.672;2022-10-17T14:50:19;17.00;99.90
29577;DHT22;16509;53.862;10.672;2022-10-17T14:53:19;17.00;99.90
29577;DHT22;16509;53.862;10.672;2022-10-17T14:55:59;17.20;99.90
29577;DHT22;16509;53.862;10.672;2022-10-17T14:58:30;16.90;99.90
29577;DHT22;16509;53.862;10.672;2022-10-17T15:00:57;17.00;99.90
29577;DHT22;16509;53.862;10.672;2022-10-17T15:03:24;17.00;99.90
29577;DHT22;16509;53.862;10.672;2022-10-17T15:05:50;17.10;99.90
29577;DHT22;16509;53.862;10.672;2022-10-17T15:08:18;16.60;99.90
29577;DHT22;16509;53.862;10.672;2022-10-17T15:10:45;17.30;99.90
29577;DHT22;16509;53.862;10.672;2022-10-17T15:13:12;19.50;99.90
29577;DHT22;16509;53.862;10.672;2022-10-17T15:15:39;16.70;99.90
29577;DHT22;16509;53.862;10.672;2022-10-17T15:18:06;16.50;99.90
29577;DHT22;16509;53.862;10.672;2022-10-17T15:20:32;17.70;99.90
29577;DHT22;16509;53.862;10.672;2022-10-17T15:23:01;16.80;99.90
29577;DHT22;16509;53.862;10.672;2022-10-17T15:25:28;18.40;99.90
29577;DHT22;16509;53.862;10.672;2022-10-17T15:27:55;16.70;99.90
29577;DHT22;16509;53.862;10.672;2022-10-17T15:30:26;16.60;99.90
29577;DHT22;16509;53.862;10.672;2022-10-17T15:32:52;16.80;99.90
29577;DHT22;16509;53.862;10.672;2022-10-17T15:35:18;17.20;99.90
29577;DHT22;16509;53.862;10.672;2022-10-17T15:37:44;17.50;99.90
29577;DHT22;16509;53.862;10.672;2022-10-17T15:40:16;18.10;99.90
29577;DHT22;16509;53.862;10.672;2022-10-17T15:42:42;18.30;99.90
29577;DHT22;16509;53.862;10.672;2022-10-17T15:45:10;16.90;99.90
29577;DHT22;16509;53.862;10.672;2022-10-17T15:47:36;16.90;99.90
29577;DHT22;16509;53.862;10.672;2022-10-17T15:50:02;16.60;99.90
29577;DHT22;16509;53.862;10.672;2022-10-17T15:52:29;18.10;99.90
29577;DHT22;16509;53.862;10.672;2022-10-17T15:54:54;18.30;99.90
29577;DHT22;16509;53.862;10.672;2022-10-17T15:57:22;17.00;99.90
29577;DHT22;16509;53.862;10.672;2022-10-17T15:59:49;17.20;99.90
29577;DHT22;16509;53.862;10.672;2022-10-17T16:02:17;16.90;99.90
29577;DHT22;16509;53.862;10.672;2022-10-17T16:04:44;18.90;99.90
29577;DHT22;16509;53.862;10.672;2022-10-17T16:07:10;16.70;99.90
29577;DHT22;16509;53.862;10.672;2022-10-17T16:09:36;17.50;99.90
29577;DHT22;16509;53.862;10.672;2022-10-17T16:12:03;16.70;99.90
29577;DHT22;16509;53.862;10.672;2022-10-17T16:14:29;16.80;99.90
29577;DHT22;16509;53.862;10.672;2022-10-17T16:16:57;17.80;99.90
29577;DHT22;16509;53.862;10.672;2022-10-17T16:19:24;18.40;99.90
29577;DHT22;16509;53.862;10.672;2022-10-17T16:21:51;16.90;99.90
29577;DHT22;16509;53.862;10.672;2022-10-17T16:24:17;17.90;99.90
29577;DHT22;16509;53.862;10.672;2022-10-17T16:26:43;17.40;99.90
29577;DHT22;16509;53.862;10.672;2022-10-17T16:29:08;18.00;99.90
29577;DHT22;16509;53.862;10.672;2022-10-17T16:31:35;18.30;99.90
29577;DHT22;16509;53.862;10.672;2022-10-17T16:34:04;17.80;99.90
29577;DHT22;16509;53.862;10.672;2022-10-17T16:36:31;18.00;99.90
29577;DHT22;16509;53.862;10.672;2022-10-17T16:38:57;17.20;99.90
29577;DHT22;16509;53.862;10.672;2022-10-17T16:41:28;16.70;99.90
29577;DHT22;16509;53.862;10.672;2022-10-17T16:43:57;17.50;99.90
29577;DHT22;16509;53.862;10.672;2022-10-17T16:46:23;17.30;99.90
29577;DHT22;16509;53.862;10.672;2022-10-17T16:48:50;16.30;99.90
29577;DHT22;16509;53.862;10.672;2022-10-17T16:51:16;17.10;99.90
29577;DHT22;16509;53.862;10.672;2022-10-17T16:53:44;16.60;99.90
29577;DHT22;16509;53.862;10.672;2022-10-17T16:56:12;16.30;99.90
29577;DHT22;16509;53.862;10.672;2022-10-17T16:58:39;16.50;99.90
29577;DHT22;16509;53.862;10.672;2022-10-17T17:01:07;16.90;99.90
29577;DHT22;16509;53.862;10.672;2022-10-17T17:03:36;18.20;99.90
29577;DHT22;16509;53.862;10.672;2022-10-17T17:06:04;16.60;99.90
29577;DHT22;16509;53.862;10.672;2022-10-17T17:08:30;16.60;99.90
29577;DHT22;16509;53.862;10.672;2022-10-17T17:10:56;17.50;99.90
29577;DHT22;16509;53.862;10.672;2022-10-17T17:13:23;17.40;99.90
29577;DHT22;16509;53.862;10.672;2022-10-17T17:15:48;16.60;99.90